Time;durP1;ratioP1;P1;durP2;ratioP2;P2;SDS_P1;SDS_P2;PMS_P1;PMS_P2;Temp;Humidity;BMP_temperature;BMP_pressure;BME280_temperature;BME280_humidity;BME280_pressure;Samples;Min_cycle;Max_cycle;Signal;HPM_P1;HPM_P2
2022/07/30 00:01:32;;;;;;;4.07;3.60;;;;;;;19.43;65.87;100815.59;5031383;28;20868;-82
2022/07/30 00:03:59;;;;;;;4.17;3.60;;;;;;;19.39;66.20;100809.63;5031366;28;20224;-82
2022/07/30 00:06:26;;;;;;;4.03;3.60;;;;;;;19.35;66.36;100821.72;5031580;28;20210;-84
2022/07/30 00:08:53;;;;;;;4.03;3.70;;;;;;;19.32;66.64;100823.91;5031545;28;20211;-81
2022/07/30 00:11:20;;;;;;;4.23;3.83;;;;;;;19.30;66.79;100815.09;5030932;28;20246;-82
2022/07/30 00:13:47;;;;;;;6.57;3.90;;;;;;;19.27;67.20;100813.53;5043227;28;20209;-81
2022/07/30 00:16:14;;;;;;;4.47;3.13;;;;;;;19.25;67.06;100820.94;5034528;28;20662;-82
2022/07/30 00:18:40;;;;;;;3.77;3.07;;;;;;;19.25;67.26;100820.94;5031090;28;20591;-85
2022/07/30 00:21:07;;;;;;;3.50;3.20;;;;;;;19.24;67.31;100824.66;5030906;28;20229;-82
2022/07/30 00:23:33;;;;;;;5.30;3.37;;;;;;;19.24;67.56;100823.78;5030910;28;20232;-83
2022/07/30 00:26:02;;;;;;;5.80;3.83;;;;;;;19.23;67.49;100808.59;5030837;28;20213;-81
2022/07/30 00:28:28;;;;;;;4.13;3.77;;;;;;;19.23;67.60;100811.28;5030966;28;20208;-82
2022/07/30 00:30:55;;;;;;;6.03;3.87;;;;;;;19.19;67.85;100810.72;5031066;28;20235;-84
2022/07/30 00:33:21;;;;;;;4.37;3.77;;;;;;;19.17;67.91;100812.72;5030800;28;20216;-83
2022/07/30 00:35:48;;;;;;;4.23;3.67;;;;;;;19.16;68.04;100807.50;5030845;28;20208;-83
2022/07/30 00:38:14;;;;;;;4.90;3.27;;;;;;;19.15;68.25;100808.50;5032697;28;20209;-82
2022/07/30 00:40:41;;;;;;;4.00;3.60;;;;;;;19.13;68.41;100808.66;5036709;28;20228;-82
2022/07/30 00:43:14;;;;;;;6.20;3.50;;;;;;;19.14;68.48;100809.50;5034876;28;20240;-82
2022/07/30 00:45:40;;;;;;;4.57;3.97;;;;;;;19.12;68.64;100803.38;5031576;28;20193;-84
2022/07/30 00:48:08;;;;;;;5.27;3.87;;;;;;;19.12;68.69;100806.09;5031896;28;20331;-84
2022/07/30 00:50:34;;;;;;;4.63;3.83;;;;;;;19.10;68.72;100802.69;5030746;28;20311;-81
2022/07/30 00:53:03;;;;;;;4.50;4.10;;;;;;;19.10;68.89;100802.69;5025726;28;20208;-83
2022/07/30 00:55:30;;;;;;;4.23;3.83;;;;;;;19.10;68.98;100811.63;5045419;28;20729;-82
2022/07/30 00:57:56;;;;;;;3.83;3.40;;;;;;;19.11;68.71;100809.78;5040717;28;20587;-83
2022/07/30 01:00:27;;;;;;;4.17;3.27;;;;;;;19.12;68.76;100804.25;5030525;28;20235;-83
2022/07/30 01:02:54;;;;;;;5.37;4.33;;;;;;;19.14;68.97;100804.09;5035182;28;20213;-82
2022/07/30 01:05:20;;;;;;;4.70;3.60;;;;;;;19.16;68.91;100807.50;5050976;28;20218;-81
2022/07/30 01:07:47;;;;;;;3.70;3.40;;;;;;;19.17;68.88;100812.72;5050768;28;20208;-82
2022/07/30 01:10:15;;;;;;;6.10;3.90;;;;;;;19.18;68.78;100814.44;5035188;28;20223;-82
2022/07/30 01:12:43;;;;;;;4.13;3.73;;;;;;;19.17;68.86;100810.03;5031736;28;20216;-83
2022/07/30 01:15:11;;;;;;;4.17;3.60;;;;;;;19.16;68.95;100811.06;5045917;28;20771;-82
2022/07/30 01:17:39;;;;;;;5.27;3.83;;;;;;;19.16;69.01;100805.66;5034113;28;20204;-82
2022/07/30 01:20:10;;;;;;;4.97;3.90;;;;;;;19.14;69.05;100810.34;5040222;28;20719;-83
2022/07/30 01:22:46;;;;;;;4.87;3.50;;;;;;;19.14;69.25;100806.78;5032428;28;20573;-83
2022/07/30 01:25:20;;;;;;;4.27;3.80;;;;;;;19.12;69.47;100803.38;5033043;28;20291;-82
2022/07/30 01:27:52;;;;;;;4.87;3.97;;;;;;;19.09;69.42;100796.44;5030707;28;20282;-83
2022/07/30 01:30:23;;;;;;;5.33;4.07;;;;;;;19.08;69.56;100800.13;5032196;28;20229;-83
2022/07/30 01:32:53;;;;;;;4.70;4.00;;;;;;;19.06;69.85;100796.72;5030203;28;20185;-82
2022/07/30 01:35:23;;;;;;;4.57;3.97;;;;;;;19.03;70.09;100803.25;5030370;28;20208;-83
2022/07/30 01:37:51;;;;;;;4.63;4.13;;;;;;;19.04;70.60;100812.22;5034335;28;20559;-83
2022/07/30 01:40:19;;;;;;;5.00;4.10;;;;;;;19.04;70.81;100810.38;5050330;28;20224;-83
2022/07/30 01:42:53;;;;;;;5.40;3.63;;;;;;;19.05;71.21;100816.63;5041657;28;20211;-83
2022/07/30 01:45:23;;;;;;;5.03;4.20;;;;;;;19.06;71.30;100821.03;5050236;28;20195;-83
2022/07/30 01:47:53;;;;;;;5.83;4.20;;;;;;;19.05;71.48;100822.88;5040085;28;20205;-82
2022/07/30 01:50:21;;;;;;;5.60;4.00;;;;;;;19.05;71.55;100825.56;5031632;28;20238;-82
2022/07/30 01:52:50;;;;;;;7.90;4.43;;;;;;;19.05;71.71;100824.72;5031451;28;20207;-82
2022/07/30 01:55:24;;;;;;;4.93;4.33;;;;;;;19.03;72.17;100832.97;5031766;28;20231;-83
2022/07/30 01:57:53;;;;;;;4.50;4.10;;;;;;;19.03;72.36;100841.06;5032010;28;20248;-83
2022/07/30 02:00:23;;;;;;;5.87;4.70;;;;;;;19.04;72.43;100850.84;5030626;28;20228;-84
2022/07/30 02:02:49;;;;;;;5.40;4.70;;;;;;;19.03;72.49;100851.00;5030007;28;20640;-83
2022/07/30 02:05:16;;;;;;;4.17;3.77;;;;;;;18.99;72.60;100857.69;5048142;28;20277;-83
2022/07/30 02:07:49;;;;;;;4.83;4.00;;;;;;;18.98;72.80;100854.16;5049521;28;20217;-82
2022/07/30 02:10:23;;;;;;;5.13;4.63;;;;;;;18.98;73.18;100853.31;5051799;28;20330;-82
2022/07/30 02:12:55;;;;;;;4.40;4.00;;;;;;;18.95;73.64;100851.75;5053578;28;20211;-83
2022/07/30 02:15:26;;;;;;;5.30;4.43;;;;;;;18.98;73.80;100856.00;5037594;28;20199;-83
2022/07/30 02:18:00;;;;;;;5.40;4.90;;;;;;;18.96;74.19;100858.00;5033457;28;20211;-83
2022/07/30 02:20:29;;;;;;;4.90;4.43;;;;;;;18.95;74.47;100853.59;5031476;28;20237;-83
2022/07/30 02:23:02;;;;;;;5.00;4.60;;;;;;;18.94;74.75;100863.53;5032371;28;20759;-82
2022/07/30 02:25:29;;;;;;;4.43;4.00;;;;;;;18.93;74.41;100858.28;5032025;28;20189;-82
2022/07/30 02:28:02;;;;;;;5.90;4.90;;;;;;;18.90;74.42;100870.22;5032768;28;20721;-83
2022/07/30 02:30:31;;;;;;;6.73;4.50;;;;;;;18.89;74.71;100873.91;5033482;28;20712;-83
2022/07/30 02:33:02;;;;;;;6.00;4.87;;;;;;;18.87;74.73;100869.66;5034744;28;20199;-82
2022/07/30 02:35:30;;;;;;;5.47;4.67;;;;;;;18.87;74.80;100870.50;5033741;28;20189;-83
2022/07/30 02:37:58;;;;;;;5.10;4.47;;;;;;;18.87;74.69;100864.25;5033028;28;20214;-83
2022/07/30 02:40:26;;;;;;;4.47;4.07;;;;;;;18.85;74.75;100867.09;5033226;28;20684;-83
2022/07/30 02:42:54;;;;;;;4.80;4.30;;;;;;;18.85;75.07;100869.78;5033247;28;20212;-82
2022/07/30 02:45:24;;;;;;;6.27;4.50;;;;;;;18.87;75.15;100866.94;5032902;28;20628;-83
2022/07/30 02:47:53;;;;;;;5.37;4.87;;;;;;;18.87;75.36;100865.09;5035144;28;20261;-84
2022/07/30 02:50:21;;;;;;;4.63;4.23;;;;;;;18.89;75.35;100865.81;5034393;28;20592;-83
2022/07/30 02:52:49;;;;;;;8.03;4.93;;;;;;;18.91;75.45;100866.53;5034330;28;20244;-82
2022/07/30 02:55:18;;;;;;;5.63;4.77;;;;;;;18.91;75.49;100869.22;5033883;28;20674;-82
2022/07/30 02:57:47;;;;;;;5.37;4.90;;;;;;;18.93;75.44;100864.53;5034007;28;20828;-83
2022/07/30 03:00:14;;;;;;;5.97;5.47;;;;;;;18.92;75.85;100862.84;5045568;28;20666;-82
2022/07/30 03:02:44;;;;;;;4.60;4.20;;;;;;;18.94;75.66;100873.50;5032343;28;20546;-81
2022/07/30 03:05:13;;;;;;;5.53;5.03;;;;;;;18.94;75.94;100870.78;5032480;28;20220;-82
2022/07/30 03:07:43;;;;;;;6.03;5.27;;;;;;;18.93;76.28;100874.47;5032292;28;20216;-81
2022/07/30 03:10:11;;;;;;;5.33;4.57;;;;;;;18.93;76.37;100878.03;5032809;28;20323;-81
2022/07/30 03:12:40;;;;;;;6.13;5.10;;;;;;;18.92;76.73;100872.78;5031860;28;20221;-85
2022/07/30 03:15:08;;;;;;;5.53;4.73;;;;;;;18.90;76.97;100877.47;5032298;28;20208;-80
2022/07/30 03:17:38;;;;;;;5.50;5.00;;;;;;;18.86;77.15;100884.13;5032226;28;20194;-80
2022/07/30 03:20:10;;;;;;;4.77;4.30;;;;;;;18.82;77.10;100882.72;5032457;28;20227;-81
2022/07/30 03:22:41;;;;;;;5.10;4.70;;;;;;;18.73;77.09;100879.91;5031821;28;20580;-81
2022/07/30 03:25:11;;;;;;;6.07;4.90;;;;;;;18.67;77.27;100885.00;5032648;28;20550;-81
2022/07/30 03:27:39;;;;;;;4.60;4.20;;;;;;;18.61;77.46;100886.47;5032382;28;20637;-83
2022/07/30 03:30:08;;;;;;;6.17;4.60;;;;;;;18.55;77.69;100887.00;5032283;28;20238;-82
2022/07/30 03:32:35;;;;;;;8.50;5.20;;;;;;;18.48;77.93;100893.94;5032376;28;20314;-84
2022/07/30 03:35:03;;;;;;;4.90;4.40;;;;;;;18.45;78.19;100890.69;5031990;28;20210;-83
2022/07/30 03:37:31;;;;;;;5.13;4.73;;;;;;;18.43;78.65;100903.47;5031909;28;20662;-84
2022/07/30 03:39:59;;;;;;;5.47;4.70;;;;;;;18.38;78.83;100901.19;5032025;28;20242;-84
2022/07/30 03:42:26;;;;;;;5.17;4.73;;;;;;;18.35;79.15;100902.31;5031729;28;20222;-84
2022/07/30 03:44:53;;;;;;;5.73;5.23;;;;;;;18.33;79.37;100907.00;5031747;28;20251;-84
2022/07/30 03:47:22;;;;;;;6.63;5.40;;;;;;;18.31;79.67;100903.59;5032005;28;20214;-84
2022/07/30 03:49:48;;;;;;;7.20;5.60;;;;;;;18.30;79.82;100909.13;5032190;28;20245;-83
2022/07/30 03:52:16;;;;;;;6.40;5.30;;;;;;;18.24;80.03;100918.63;5033599;28;20209;-84
2022/07/30 03:54:45;;;;;;;5.50;5.10;;;;;;;18.19;80.22;100922.72;5032728;28;20201;-83
2022/07/30 03:57:12;;;;;;;5.50;4.97;;;;;;;18.12;80.41;100932.34;5033375;28;20203;-84
2022/07/30 03:59:39;;;;;;;5.27;4.83;;;;;;;18.06;80.60;100933.78;5033016;28;20593;-85
2022/07/30 04:02:06;;;;;;;5.87;5.13;;;;;;;18.02;81.20;100937.72;5032029;28;20677;-83
2022/07/30 04:04:32;;;;;;;9.07;6.07;;;;;;;18.01;81.71;100944.13;5031451;28;20227;-82
2022/07/30 04:06:59;;;;;;;7.37;5.80;;;;;;;18.01;82.37;100947.66;5032146;28;20218;-82
2022/07/30 04:09:26;;;;;;;8.17;5.57;;;;;;;18.00;82.31;100954.03;5031684;28;20598;-82
2022/07/30 04:11:53;;;;;;;6.70;6.03;;;;;;;18.00;82.60;100958.56;5051190;28;20215;-83
2022/07/30 04:14:20;;;;;;;6.97;6.27;;;;;;;17.98;82.80;100953.31;5050845;28;20252;-84
2022/07/30 04:16:51;;;;;;;7.83;6.93;;;;;;;17.97;83.17;100959.69;5047619;28;20337;-82
2022/07/30 04:19:22;;;;;;;7.27;6.20;;;;;;;17.96;83.53;100959.84;5031039;28;20292;-84
2022/07/30 04:21:51;;;;;;;8.10;6.23;;;;;;;17.95;83.91;100963.50;5051218;28;20194;-83
2022/07/30 04:24:18;;;;;;;8.37;6.43;;;;;;;17.95;84.20;100964.38;5048169;28;20231;-83
2022/07/30 04:26:47;;;;;;;7.37;6.60;;;;;;;17.94;84.53;100969.91;5030998;28;20597;-84
2022/07/30 04:29:16;;;;;;;8.60;6.70;;;;;;;17.92;84.74;100970.03;5031054;28;20206;-84
2022/07/30 04:31:42;;;;;;;7.03;6.33;;;;;;;17.93;85.27;100965.50;5031007;28;20684;-84
2022/07/30 04:34:13;;;;;;;6.60;5.80;;;;;;;17.93;85.38;100963.66;5030055;28;20249;-84
2022/07/30 04:36:40;;;;;;;8.10;5.90;;;;;;;17.94;85.64;100965.34;5030826;28;20198;-83
2022/07/30 04:39:06;;;;;;;7.93;6.30;;;;;;;17.94;85.77;100962.66;5044898;28;20199;-83
2022/07/30 04:41:33;;;;;;;7.20;6.50;;;;;;;17.91;85.46;100962.97;5050611;28;20257;-83
2022/07/30 04:44:00;;;;;;;6.60;6.00;;;;;;;17.90;85.50;100961.25;5050245;28;20208;-84
2022/07/30 04:46:27;;;;;;;6.77;5.93;;;;;;;17.87;85.52;100960.66;5050523;28;20216;-85
2022/07/30 04:48:54;;;;;;;6.43;5.80;;;;;;;17.85;85.51;100962.66;5050531;28;20218;-83
2022/07/30 04:51:34;;;;;;;6.53;5.93;;;;;;;17.83;85.77;100960.09;5050118;28;20237;-82
2022/07/30 04:54:02;;;;;;;5.67;5.20;;;;;;;17.83;85.87;100960.09;5050592;28;20224;-83
2022/07/30 04:56:31;;;;;;;7.40;5.33;;;;;;;17.86;85.85;100965.22;5050318;28;20680;-83
2022/07/30 04:58:58;;;;;;;6.37;5.20;;;;;;;17.88;85.69;100962.38;5050356;28;20223;-83
2022/07/30 05:01:34;;;;;;;6.27;5.57;;;;;;;17.89;85.58;100964.09;5050663;28;20303;-83
2022/07/30 05:04:01;;;;;;;5.47;5.03;;;;;;;17.90;85.43;100961.25;5052083;28;20220;-81
2022/07/30 05:06:28;;;;;;;6.10;5.53;;;;;;;17.93;85.50;100952.88;5051849;28;20206;-81
2022/07/30 05:08:55;;;;;;;7.10;6.50;;;;;;;17.94;85.36;100951.88;5051823;28;20656;-81
2022/07/30 05:11:22;;;;;;;7.27;6.57;;;;;;;17.95;85.33;100937.44;5051368;28;20244;-83
2022/07/30 05:13:49;;;;;;;7.37;5.97;;;;;;;17.93;85.36;100939.41;5051072;28;20302;-87
2022/07/30 05:16:15;;;;;;;7.53;6.17;;;;;;;17.91;85.38;100933.31;5051050;28;20217;-86
2022/07/30 05:18:44;;;;;;;7.60;6.47;;;;;;;17.88;85.37;100933.59;5050541;28;20231;-83
2022/07/30 05:21:11;;;;;;;6.93;5.80;;;;;;;17.85;85.57;100936.56;5050690;28;20237;-84
2022/07/30 05:23:37;;;;;;;9.37;6.60;;;;;;;17.82;85.70;100944.91;5050374;28;20210;-83
2022/07/30 05:26:04;;;;;;;6.93;6.23;;;;;;;17.79;85.96;100936.25;5047128;28;20324;-82
2022/07/30 05:28:30;;;;;;;6.33;5.73;;;;;;;17.76;86.13;100936.50;5031767;28;20217;-83
2022/07/30 05:30:57;;;;;;;6.73;6.10;;;;;;;17.73;86.36;100943.03;5031900;28;20232;-83
2022/07/30 05:33:24;;;;;;;6.80;6.20;;;;;;;17.72;86.58;100941.34;5029320;28;20570;-83
2022/07/30 05:35:52;;;;;;;7.83;6.57;;;;;;;17.71;86.86;100934.25;5028548;28;20202;-81
2022/07/30 05:38:18;;;;;;;7.37;6.60;;;;;;;17.67;87.06;100932.81;5030581;28;20685;-82
2022/07/30 05:40:45;;;;;;;6.77;6.10;;;;;;;17.66;87.23;100941.88;5033831;28;20221;-82
2022/07/30 05:43:12;;;;;;;8.57;7.27;;;;;;;17.62;87.68;100930.47;5031546;28;20300;-82
2022/07/30 05:45:38;;;;;;;7.60;6.77;;;;;;;17.61;87.86;100931.47;5038957;28;20232;-82
2022/07/30 05:48:05;;;;;;;7.30;6.70;;;;;;;17.59;88.10;100936.13;5036333;28;20208;-82
2022/07/30 05:50:32;;;;;;;8.13;7.40;;;;;;;17.59;88.18;100932.56;5046516;28;20232;-81
2022/07/30 05:53:00;;;;;;;9.33;8.20;;;;;;;17.59;88.37;100937.97;5044185;28;20491;-82
2022/07/30 05:55:26;;;;;;;8.97;7.93;;;;;;;17.57;88.59;100929.16;5049131;28;20206;-82
2022/07/30 05:57:53;;;;;;;7.87;7.27;;;;;;;17.57;88.85;100934.56;5030687;28;20204;-83
2022/07/30 06:00:19;;;;;;;8.67;7.87;;;;;;;17.57;89.04;100946.19;5042533;28;20596;-83
2022/07/30 06:02:46;;;;;;;8.37;7.53;;;;;;;17.58;89.30;100947.88;5040562;28;20615;-82
2022/07/30 06:05:12;;;;;;;9.93;8.17;;;;;;;17.58;89.56;100949.72;5038048;28;20241;-83
2022/07/30 06:07:39;;;;;;;9.57;7.57;;;;;;;17.59;89.77;100951.44;5038033;28;20212;-84
2022/07/30 06:10:08;;;;;;;8.57;7.77;;;;;;;17.59;89.83;100946.91;5037957;28;20233;-83
2022/07/30 06:12:34;;;;;;;8.33;7.53;;;;;;;17.59;89.93;100943.34;5037516;28;20211;-85
2022/07/30 06:15:01;;;;;;;8.90;7.37;;;;;;;17.58;90.13;100945.19;5050259;28;20198;-83
2022/07/30 06:17:27;;;;;;;8.13;7.43;;;;;;;17.57;90.08;100948.03;5037791;28;20213;-81
2022/07/30 06:19:54;;;;;;;8.37;7.60;;;;;;;17.55;90.13;100944.63;5042213;28;20700;-82
2022/07/30 06:22:20;;;;;;;8.67;7.83;;;;;;;17.55;90.09;100947.34;5034558;28;20215;-83
2022/07/30 06:24:47;;;;;;;8.80;8.00;;;;;;;17.54;90.20;100951.00;5040000;28;20236;-83
2022/07/30 06:27:15;;;;;;;8.50;7.60;;;;;;;17.54;90.23;100953.69;5035267;28;20209;-82
2022/07/30 06:29:41;;;;;;;9.63;8.70;;;;;;;17.54;90.61;100951.00;5044253;28;20229;-83
2022/07/30 06:32:08;;;;;;;8.60;7.87;;;;;;;17.55;90.53;100955.41;5036257;28;20668;-83
2022/07/30 06:34:34;;;;;;;7.93;7.30;;;;;;;17.56;90.60;100957.09;5033698;28;20209;-81
2022/07/30 06:37:01;;;;;;;9.07;8.13;;;;;;;17.57;90.80;100958.78;5032131;28;20211;-81
2022/07/30 06:39:27;;;;;;;8.70;7.90;;;;;;;17.59;91.03;100960.38;5037659;28;20751;-82
2022/07/30 06:41:54;;;;;;;8.50;7.70;;;;;;;17.64;91.45;100960.00;5035878;28;20209;-82
2022/07/30 06:44:22;;;;;;;8.40;7.70;;;;;;;17.69;91.82;100960.47;5036772;28;20217;-82
2022/07/30 06:46:48;;;;;;;7.73;7.13;;;;;;;17.74;91.36;100960.88;5032529;28;20234;-82
2022/07/30 06:49:15;;;;;;;8.07;7.37;;;;;;;17.79;91.36;100958.66;5033615;28;20207;-81
2022/07/30 06:51:41;;;;;;;8.90;7.93;;;;;;;17.81;91.19;100961.22;5032536;28;20209;-81
2022/07/30 06:54:08;;;;;;;7.73;7.00;;;;;;;17.86;91.22;100965.22;5029728;28;20580;-82
2022/07/30 06:56:34;;;;;;;8.13;7.17;;;;;;;17.90;91.08;100960.41;5030308;28;20206;-85
2022/07/30 06:59:01;;;;;;;10.23;7.67;;;;;;;17.96;90.97;100963.38;5030358;28;20218;-82
2022/07/30 07:01:29;;;;;;;8.43;6.97;;;;;;;18.02;90.93;100959.28;5031911;28;20212;-82
2022/07/30 07:03:55;;;;;;;8.57;7.67;;;;;;;18.08;90.62;100957.91;5033559;28;20213;-81
2022/07/30 07:06:22;;;;;;;8.83;7.53;;;;;;;18.15;90.63;100970.66;5035606;28;20242;-81
2022/07/30 07:08:48;;;;;;;7.30;6.70;;;;;;;18.25;90.92;100973.41;5033421;28;20217;-82
2022/07/30 07:11:15;;;;;;;7.87;7.20;;;;;;;18.35;91.31;100964.34;5034869;28;20320;-83
2022/07/30 07:13:41;;;;;;;6.87;6.27;;;;;;;18.46;90.90;100970.59;5038455;28;20203;-82
2022/07/30 07:16:08;;;;;;;12.87;8.57;;;;;;;18.56;90.96;100975.00;5037395;28;20202;-82
2022/07/30 07:18:36;;;;;;;6.43;5.80;;;;;;;18.70;91.28;100965.66;5038390;28;20205;-82
2022/07/30 07:21:02;;;;;;;5.83;5.33;;;;;;;18.85;90.77;100960.69;5029828;28;20999;-84
2022/07/30 07:23:29;;;;;;;6.40;5.70;;;;;;;18.98;90.07;100959.44;5029887;28;20259;-82
2022/07/30 07:25:56;;;;;;;5.30;4.80;;;;;;;19.15;89.63;100954.28;5032074;28;20597;-83
2022/07/30 07:28:22;;;;;;;7.37;5.83;;;;;;;19.34;89.48;100956.94;5036742;28;20212;-81
2022/07/30 07:30:49;;;;;;;5.67;5.07;;;;;;;19.53;88.71;100948.78;5041493;28;20252;-81
2022/07/30 07:33:15;;;;;;;4.30;3.90;;;;;;;19.72;87.29;100948.72;5038056;28;20215;-82
2022/07/30 07:35:43;;;;;;;4.13;3.83;;;;;;;19.84;85.13;100940.44;5033057;28;20201;-82
2022/07/30 07:38:10;;;;;;;3.63;3.23;;;;;;;19.96;83.95;100948.19;5030879;28;20220;-82
2022/07/30 07:40:36;;;;;;;4.00;3.70;;;;;;;20.09;82.91;100939.72;5033744;28;20221;-80
2022/07/30 07:43:04;;;;;;;3.93;3.63;;;;;;;20.26;82.07;100938.03;5034562;28;20918;-81
2022/07/30 07:45:30;;;;;;;3.53;3.13;;;;;;;20.48;82.08;100937.63;5033420;28;20234;-81
2022/07/30 07:47:57;;;;;;;3.60;3.20;;;;;;;20.70;80.77;100937.19;5029628;28;20590;-82
2022/07/30 07:50:24;;;;;;;3.60;3.30;;;;;;;20.87;78.89;100934.59;5036781;28;20233;-83
2022/07/30 07:52:51;;;;;;;3.90;3.50;;;;;;;21.06;78.77;100929.84;5033402;28;20589;-81
2022/07/30 07:55:18;;;;;;;3.30;3.00;;;;;;;21.25;77.38;100925.28;5034609;28;20203;-83
2022/07/30 07:57:45;;;;;;;4.07;3.25;;;;;;;21.40;75.46;100918.25;5030793;28;20588;-82
2022/07/30 08:00:14;;;;;;;2.90;2.70;;;;;;;21.45;73.09;100919.47;5036431;28;20228;-82
2022/07/30 08:02:40;;;;;;;4.10;3.50;;;;;;;21.51;72.51;100919.81;5039235;28;20266;-81
2022/07/30 08:05:09;;;;;;;4.53;3.90;;;;;;;21.56;71.66;100914.78;5036619;28;20215;-82
2022/07/30 08:07:35;;;;;;;3.00;2.80;;;;;;;21.57;71.10;100909.19;5031074;28;20214;-82
2022/07/30 08:10:04;;;;;;;3.50;3.22;;;;;;;21.63;70.98;100915.84;5037530;28;20242;-81
2022/07/30 08:12:31;;;;;;;4.13;2.80;;;;;;;21.69;70.06;100924.16;5032696;28;20229;-81
2022/07/30 08:14:58;;;;;;;4.20;3.03;;;;;;;21.76;69.67;100916.22;5034275;28;20202;-84
2022/07/30 08:17:24;;;;;;;5.00;3.30;;;;;;;21.91;69.61;100921.88;5032190;28;20211;-80
2022/07/30 08:19:51;;;;;;;3.30;3.00;;;;;;;22.06;69.30;100912.97;5033011;28;20273;-82
2022/07/30 08:22:17;;;;;;;3.45;3.10;;;;;;;22.23;68.96;100923.88;5038948;28;20235;-84
2022/07/30 08:24:44;;;;;;;4.25;3.72;;;;;;;22.34;67.97;100910.00;5041126;28;20205;-83
2022/07/30 08:27:12;;;;;;;5.68;3.30;;;;;;;22.43;67.00;100914.41;5031905;28;20233;-84
2022/07/30 08:29:38;;;;;;;3.28;2.97;;;;;;;22.47;65.85;100915.78;5037765;28;20411;-84
2022/07/30 08:32:06;;;;;;;2.70;2.50;;;;;;;22.46;64.76;100920.38;5035902;28;20690;-84
2022/07/30 08:34:32;;;;;;;3.92;2.70;;;;;;;22.45;64.53;100929.53;5041299;28;20564;-84
2022/07/30 08:36:59;;;;;;;3.70;3.08;;;;;;;22.49;64.73;100924.63;5038404;28;20204;-83
2022/07/30 08:39:25;;;;;;;5.43;3.53;;;;;;;22.54;64.79;100932.25;5037104;28;20225;-83
2022/07/30 08:41:52;;;;;;;4.15;3.35;;;;;;;22.55;64.96;100931.25;5036603;28;20738;-84
2022/07/30 08:44:20;;;;;;;3.38;3.15;;;;;;;22.59;65.43;100933.44;5034060;28;20203;-84
2022/07/30 08:46:48;;;;;;;3.85;3.30;;;;;;;22.61;65.42;100928.69;5035986;28;20226;-83
2022/07/30 08:49:15;;;;;;;6.05;3.40;;;;;;;22.63;64.75;100931.25;5034568;28;20713;-83
2022/07/30 08:51:42;;;;;;;3.42;3.13;;;;;;;22.62;64.76;100934.97;5037752;28;20210;-82
2022/07/30 08:54:09;;;;;;;3.55;3.10;;;;;;;22.64;64.94;100939.22;5034521;28;20285;-83
2022/07/30 08:56:36;;;;;;;2.95;2.72;;;;;;;22.68;64.58;100934.31;5036126;28;20202;-83
2022/07/30 08:59:04;;;;;;;4.13;3.15;;;;;;;22.71;64.55;100929.41;5037754;28;20713;-84
2022/07/30 09:01:32;;;;;;;4.10;2.97;;;;;;;22.77;64.20;100927.88;5037356;28;20237;-83
2022/07/30 09:03:58;;;;;;;2.90;2.60;;;;;;;22.80;63.40;100925.69;5040306;28;20659;-83
2022/07/30 09:06:25;;;;;;;3.60;2.70;;;;;;;22.80;62.85;100932.97;5030578;28;20714;-83
2022/07/30 09:08:51;;;;;;;3.67;3.38;;;;;;;22.84;63.08;100939.78;5030600;28;20215;-83
2022/07/30 09:11:18;;;;;;;3.75;3.15;;;;;;;22.88;63.37;100929.44;5031094;28;20229;-83
2022/07/30 09:13:44;;;;;;;4.35;3.05;;;;;;;22.96;63.72;100927.53;5033828;28;20204;-82
2022/07/30 09:16:20;;;;;;;3.20;2.88;;;;;;;23.04;63.27;100929.41;5034572;28;20212;-83
2022/07/30 09:18:49;;;;;;;3.75;3.10;;;;;;;23.11;62.58;100933.97;5035794;28;20571;-83
2022/07/30 09:21:17;;;;;;;3.33;3.00;;;;;;;23.15;61.97;100927.19;5035577;28;20228;-83
2022/07/30 09:23:56;;;;;;;3.88;3.03;;;;;;;23.27;62.08;100933.13;5037378;28;20205;-83
2022/07/30 09:26:22;;;;;;;3.55;2.97;;;;;;;23.33;61.70;100932.41;5031622;28;20607;-84
2022/07/30 09:28:49;;;;;;;4.25;3.45;;;;;;;23.40;61.94;100930.72;5036447;28;20279;-83
2022/07/30 09:31:16;;;;;;;3.08;2.78;;;;;;;23.52;61.17;100933.94;5037317;28;20603;-83
2022/07/30 09:33:45;;;;;;;3.42;2.80;;;;;;;23.62;60.79;100937.31;5032125;28;20205;-83
2022/07/30 09:36:15;;;;;;;3.03;2.53;;;;;;;23.77;60.44;100942.88;5033594;28;20615;-83
2022/07/30 09:38:47;;;;;;;4.47;2.33;;;;;;;23.91;60.05;100944.00;5034638;28;20567;-83
2022/07/30 09:41:15;;;;;;;3.58;2.65;;;;;;;24.03;59.04;100943.44;5035229;28;20376;-83
2022/07/30 09:43:43;;;;;;;2.92;2.65;;;;;;;24.14;58.23;100944.94;5033649;28;20299;-82
2022/07/30 09:46:10;;;;;;;3.30;2.55;;;;;;;24.27;57.94;100941.66;5038684;28;20224;-84
2022/07/30 09:48:37;;;;;;;2.97;2.60;;;;;;;24.41;57.50;100954.50;5035643;28;20656;-84
2022/07/30 09:51:04;;;;;;;3.00;1.90;;;;;;;24.49;56.32;100944.41;5035189;28;20228;-84
2022/07/30 09:53:32;;;;;;;2.10;2.00;;;;;;;24.57;55.33;100944.34;5032977;28;20206;-84
2022/07/30 09:55:59;;;;;;;2.03;1.83;;;;;;;24.70;55.52;100954.66;5035775;28;20217;-84
2022/07/30 09:58:37;;;;;;;2.45;1.80;;;;;;;24.85;53.81;100949.25;5032912;28;20210;-83
2022/07/30 10:01:04;;;;;;;2.80;1.70;;;;;;;24.91;52.56;100949.34;5034128;28;20695;-84
2022/07/30 10:03:31;;;;;;;2.05;1.75;;;;;;;25.00;52.47;100954.78;5033909;28;20688;-84
2022/07/30 10:05:59;;;;;;;1.77;1.65;;;;;;;25.06;51.51;100957.63;5032075;28;20230;-84
2022/07/30 10:08:40;;;;;;;1.70;1.60;;;;;;;25.16;51.19;100949.19;5031985;28;20213;-84
2022/07/30 10:11:10;;;;;;;2.53;1.50;;;;;;;25.27;50.88;100943.25;5034610;28;20229;-84
2022/07/30 10:13:37;;;;;;;2.33;1.65;;;;;;;25.36;49.81;100950.34;5037078;28;20197;-84
2022/07/30 10:16:05;;;;;;;2.38;1.75;;;;;;;25.46;50.03;100945.47;5032950;28;20672;-84
2022/07/30 10:18:32;;;;;;;2.22;1.70;;;;;;;25.56;49.48;100947.94;5037401;28;20228;-84
2022/07/30 10:20:59;;;;;;;2.00;1.80;;;;;;;25.66;49.33;100947.66;5035063;28;20607;-84
2022/07/30 10:23:28;;;;;;;1.83;1.63;;;;;;;25.74;48.94;100944.84;5034887;28;20240;-85
2022/07/30 10:25:56;;;;;;;1.90;1.80;;;;;;;25.81;49.20;100945.78;5035797;28;20225;-84
2022/07/30 10:28:24;;;;;;;2.08;1.77;;;;;;;25.88;49.43;100949.44;5034831;28;20672;-85
2022/07/30 10:30:52;;;;;;;1.65;1.48;;;;;;;26.03;49.07;100952.16;5031780;28;20222;-83
2022/07/30 10:33:18;;;;;;;1.48;1.38;;;;;;;26.16;48.09;100947.72;5035573;28;20244;-85
2022/07/30 10:35:45;;;;;;;2.00;1.70;;;;;;;26.26;47.07;100941.97;5032165;28;20210;-83
2022/07/30 10:38:13;;;;;;;2.92;1.80;;;;;;;26.27;45.98;100940.91;5033283;28;20202;-84
2022/07/30 10:40:46;;;;;;;2.25;1.50;;;;;;;26.31;46.41;100949.63;5033654;28;20233;-83
2022/07/30 10:43:54;;;;;;;1.75;1.65;;;;;;;26.35;46.65;100942.69;5032951;28;20217;-83
2022/07/30 10:46:34;;;;;;;1.60;1.50;;;;;;;26.32;46.44;100952.16;5033533;28;20225;-85
2022/07/30 10:49:09;;;;;;;2.10;1.45;;;;;;;26.31;46.92;100952.34;5034034;28;20206;-84
2022/07/30 10:51:43;;;;;;;1.52;1.42;;;;;;;26.33;46.40;100944.81;5029945;28;20204;-84
2022/07/30 10:54:37;;;;;;;2.92;1.67;;;;;;;26.41;47.60;100947.41;5035006;28;20206;-85
2022/07/30 10:57:06;;;;;;;1.98;1.77;;;;;;;26.52;47.46;100944.16;5031459;28;20198;-84
2022/07/30 11:03:17;;;;;;;1.73;1.63;;;;;;;26.70;46.64;100949.16;5104771;27;20680;-79
2022/07/30 11:05:46;;;;;;;1.70;1.60;;;;;;;26.68;46.34;100941.19;5104162;28;20684;-78
2022/07/30 11:08:30;;;;;;;2.78;1.90;;;;;;;26.74;47.09;100943.13;5104802;28;20223;-78
2022/07/30 11:10:56;;;;;;;1.85;1.75;;;;;;;26.85;47.19;100939.88;5102183;28;20199;-77
2022/07/30 11:13:51;;;;;;;2.60;1.80;;;;;;;26.97;46.94;100934.75;5103666;28;20246;-78
2022/07/30 11:16:19;;;;;;;2.50;1.90;;;;;;;27.03;45.26;100931.25;5103426;28;20688;-77
2022/07/30 11:19:15;;;;;;;2.08;1.60;;;;;;;27.04;44.46;100940.28;5102834;28;20277;-76
2022/07/30 11:21:42;;;;;;;1.50;1.40;;;;;;;27.02;43.68;100943.22;5106294;28;20223;-77
2022/07/30 11:24:43;;;;;;;1.63;1.52;;;;;;;27.05;44.11;100940.06;5104252;28;20212;-78
2022/07/30 11:27:10;;;;;;;1.70;1.60;;;;;;;27.13;44.36;100939.94;5099097;28;20293;-79
2022/07/30 11:29:38;;;;;;;2.08;1.70;;;;;;;27.26;44.76;100934.56;5102633;28;20318;-78
2022/07/30 11:32:28;;;;;;;1.80;1.65;;;;;;;27.41;43.84;100937.19;5107646;28;20249;-78
2022/07/30 11:35:14;;;;;;;1.92;1.73;;;;;;;27.52;44.00;100938.53;5105808;28;20239;-78